Sia — ZGCJ3 — position and weather

sailwx.info

Track history (hours):
 
Tides and Currents Weather Stations Pressure Air Temp Water Temp Dewpoint Dewpoint Depression Visibility Wind Speed Wind Dir Waves Ship Positions

Sia

Last reported at 2014-Aug-18 08:33 UTC. Time now 2014-Dec-22 03:27 UTC.
Position N 39°31' E 002°22'.
Warning: this ship's position is months out of date.

Length 34 m; draft 2.4 m.

Type: Pleasure craft. MMSI: 319042600.

Date/timePositionNaut miles runAvg speedWind from/ knotsBaromVisibWave heightAir tempDewpointWater temp
2014-Aug-18 08:33N 39°31' E 002°22'1313.3
2014-Aug-18 07:33N 39°44' E 002°27'1414.3
2014-Aug-18 06:34N 39°55' E 002°39'1514.4
2014-Aug-18 05:33N 40°05' E 002°53'1515.5
2014-Aug-18 04:33N 40°15' E 003°07'14614.6
2014-Aug-17 18:33N 42°00' E 005°22'1413.9
2014-Aug-17 17:33N 42°11' E 005°35'1513.9
2014-Aug-17 16:29N 42°22' E 005°48'1313.7
2014-Aug-17 15:33N 42°31' E 006°00'2114.5
2014-Aug-17 14:04N 42°46' E 006°21'1215.0
2014-Aug-17 13:16N 42°55' E 006°32'1115.3
2014-Aug-17 12:34N 43°03' E 006°42'1515.4
2014-Aug-17 11:34N 43°14' E 006°57'1515.4
2014-Aug-17 10:33N 43°27' E 007°08'1515.0
2014-Aug-17 09:33N 43°38' E 007°22'  
2014-Aug-12 16:08N 43°44' E 007°25'0 0.0
2014-Aug-12 15:31N 43°44' E 007°25'0 0.0
2014-Aug-11 15:29N 43°44' E 007°25'3 1.6
2014-Aug-11 13:32N 43°41' E 007°24'1514.9
2014-Aug-11 12:33N 43°32' E 007°08'1514.6
2014-Aug-11 11:33N 43°23' E 006°52'  
Track history (hours):
 
Tides and Currents Weather Stations Pressure Air Temp Water Temp Dewpoint Dewpoint Depression Visibility Wind Speed Wind Dir Waves Ship Positions

Sia

Last reported at 2014-Aug-18 08:33 UTC. Time now 2014-Dec-22 03:27 UTC.
Position N 39°31' E 002°22'.
Warning: this ship's position is months out of date.

Length 34 m; draft 2.4 m.

Type: Pleasure craft. MMSI: 319042600.

Date/timePositionNaut miles runAvg speedWind from/ knotsBaromVisibWave heightAir tempDewpointWater temp
2014-Aug-18 08:33N 39°31' E 002°22'1313.3
2014-Aug-18 07:33N 39°44' E 002°27'1414.3
2014-Aug-18 06:34N 39°55' E 002°39'1514.4
2014-Aug-18 05:33N 40°05' E 002°53'1515.5
2014-Aug-18 04:33N 40°15' E 003°07'14614.6
2014-Aug-17 18:33N 42°00' E 005°22'1413.9
2014-Aug-17 17:33N 42°11' E 005°35'1513.9
2014-Aug-17 16:29N 42°22' E 005°48'1313.7
2014-Aug-17 15:33N 42°31' E 006°00'2114.5
2014-Aug-17 14:04N 42°46' E 006°21'1215.0
2014-Aug-17 13:16N 42°55' E 006°32'1115.3
2014-Aug-17 12:34N 43°03' E 006°42'1515.4
2014-Aug-17 11:34N 43°14' E 006°57'1515.4
2014-Aug-17 10:33N 43°27' E 007°08'1515.0
2014-Aug-17 09:33N 43°38' E 007°22'  
2014-Aug-12 16:08N 43°44' E 007°25'0 0.0
2014-Aug-12 15:31N 43°44' E 007°25'0 0.0
2014-Aug-11 15:29N 43°44' E 007°25'3 1.6
2014-Aug-11 13:32N 43°41' E 007°24'1514.9
2014-Aug-11 12:33N 43°32' E 007°08'1514.6
2014-Aug-11 11:33N 43°23' E 006°52'  

Dump ship's entire track history